sensor_id;sensor_type;location;lat;lon;timestamp;pressure;altitude;pressure_sealevel;temperature;humidity
77086;BME280;66014;53.134;18.006;2023-07-08T00:00:54;101679.77;;;18.92;51.31
77086;BME280;66014;53.134;18.006;2023-07-08T00:03:41;101680.92;;;18.88;51.50
77086;BME280;66014;53.134;18.006;2023-07-08T00:06:13;101683.16;;;18.85;51.53
77086;BME280;66014;53.134;18.006;2023-07-08T00:08:41;101684.45;;;18.82;51.63
77086;BME280;66014;53.134;18.006;2023-07-08T00:11:11;101686.86;;;18.79;51.68
77086;BME280;66014;53.134;18.006;2023-07-08T00:13:37;101685.97;;;18.77;51.45
77086;BME280;66014;53.134;18.006;2023-07-08T00:16:07;101684.40;;;18.75;51.58
77086;BME280;66014;53.134;18.006;2023-07-08T00:18:34;101684.20;;;18.73;51.59
77086;BME280;66014;53.134;18.006;2023-07-08T00:21:01;101679.79;;;18.70;51.39
77086;BME280;66014;53.134;18.006;2023-07-08T00:23:27;101679.27;;;18.66;51.46
77086;BME280;66014;53.134;18.006;2023-07-08T00:25:54;101681.27;;;18.63;51.58
77086;BME280;66014;53.134;18.006;2023-07-08T00:28:22;101683.92;;;18.61;51.50
77086;BME280;66014;53.134;18.006;2023-07-08T00:30:49;101679.09;;;18.59;51.62
77086;BME280;66014;53.134;18.006;2023-07-08T00:33:16;101678.15;;;18.58;51.65
77086;BME280;66014;53.134;18.006;2023-07-08T00:35:44;101673.66;;;18.57;51.53
77086;BME280;66014;53.134;18.006;2023-07-08T00:38:17;101670.17;;;18.56;51.74
77086;BME280;66014;53.134;18.006;2023-07-08T00:41:09;101669.14;;;18.54;51.93
77086;BME280;66014;53.134;18.006;2023-07-08T00:43:42;101667.17;;;18.52;52.01
77086;BME280;66014;53.134;18.006;2023-07-08T00:49:14;101666.67;;;18.49;51.86
77086;BME280;66014;53.134;18.006;2023-07-08T00:51:41;101659.16;;;18.47;52.01
77086;BME280;66014;53.134;18.006;2023-07-08T00:54:12;101658.30;;;18.45;52.21
77086;BME280;66014;53.134;18.006;2023-07-08T00:56:46;101654.92;;;18.44;52.55
77086;BME280;66014;53.134;18.006;2023-07-08T01:01:49;101649.75;;;18.35;53.02
77086;BME280;66014;53.134;18.006;2023-07-08T01:05:25;101646.67;;;18.27;53.16
77086;BME280;66014;53.134;18.006;2023-07-08T01:07:26;101641.92;;;18.17;53.43
77086;BME280;66014;53.134;18.006;2023-07-08T01:10:03;101643.71;;;18.10;53.58
77086;BME280;66014;53.134;18.006;2023-07-08T01:12:34;101641.33;;;18.01;53.93
77086;BME280;66014;53.134;18.006;2023-07-08T01:15:05;101640.65;;;17.92;54.09
77086;BME280;66014;53.134;18.006;2023-07-08T01:17:32;101639.53;;;17.83;54.23
77086;BME280;66014;53.134;18.006;2023-07-08T01:20:02;101635.70;;;17.75;54.33
77086;BME280;66014;53.134;18.006;2023-07-08T01:22:35;101632.63;;;17.69;54.44
77086;BME280;66014;53.134;18.006;2023-07-08T01:25:01;101632.69;;;17.63;54.67
77086;BME280;66014;53.134;18.006;2023-07-08T01:27:35;101628.91;;;17.55;54.83
77086;BME280;66014;53.134;18.006;2023-07-08T01:30:04;101627.27;;;17.48;54.90
77086;BME280;66014;53.134;18.006;2023-07-08T01:32:34;101628.98;;;17.44;55.18
77086;BME280;66014;53.134;18.006;2023-07-08T01:35:05;101628.21;;;17.41;55.20
77086;BME280;66014;53.134;18.006;2023-07-08T01:37:37;101627.55;;;17.38;55.35
77086;BME280;66014;53.134;18.006;2023-07-08T01:40:15;101627.48;;;17.36;55.52
77086;BME280;66014;53.134;18.006;2023-07-08T01:42:42;101628.57;;;17.33;55.62
77086;BME280;66014;53.134;18.006;2023-07-08T01:45:13;101626.38;;;17.33;55.58
77086;BME280;66014;53.134;18.006;2023-07-08T01:47:42;101629.27;;;17.34;55.79
77086;BME280;66014;53.134;18.006;2023-07-08T01:50:10;101627.38;;;17.32;55.76
77086;BME280;66014;53.134;18.006;2023-07-08T01:52:37;101627.35;;;17.30;55.85
77086;BME280;66014;53.134;18.006;2023-07-08T01:55:04;101628.86;;;17.27;56.01
77086;BME280;66014;53.134;18.006;2023-07-08T01:57:31;101631.55;;;17.24;56.19
77086;BME280;66014;53.134;18.006;2023-07-08T01:59:58;101633.84;;;17.21;56.17
77086;BME280;66014;53.134;18.006;2023-07-08T02:02:25;101633.33;;;17.18;56.21
77086;BME280;66014;53.134;18.006;2023-07-08T02:04:51;101632.02;;;17.15;56.47
77086;BME280;66014;53.134;18.006;2023-07-08T02:07:18;101635.71;;;17.12;56.62
77086;BME280;66014;53.134;18.006;2023-07-08T02:09:45;101633.94;;;17.12;56.48
77086;BME280;66014;53.134;18.006;2023-07-08T02:12:11;101639.83;;;17.12;56.76
77086;BME280;66014;53.134;18.006;2023-07-08T02:14:38;101639.29;;;17.12;56.65
77086;BME280;66014;53.134;18.006;2023-07-08T02:17:05;101645.14;;;17.14;56.68
77086;BME280;66014;53.134;18.006;2023-07-08T02:19:32;101642.98;;;17.15;56.73
77086;BME280;66014;53.134;18.006;2023-07-08T02:21:58;101647.38;;;17.15;56.98
77086;BME280;66014;53.134;18.006;2023-07-08T02:24:24;101650.84;;;17.15;56.92
77086;BME280;66014;53.134;18.006;2023-07-08T02:26:51;101654.40;;;17.15;57.09
77086;BME280;66014;53.134;18.006;2023-07-08T02:29:18;101654.07;;;17.15;57.18
77086;BME280;66014;53.134;18.006;2023-07-08T02:31:44;101659.07;;;17.13;57.18
77086;BME280;66014;53.134;18.006;2023-07-08T02:34:10;101655.04;;;17.11;57.25
77086;BME280;66014;53.134;18.006;2023-07-08T02:36:38;101654.15;;;17.08;57.49
77086;BME280;66014;53.134;18.006;2023-07-08T02:39:05;101648.01;;;17.06;57.42
77086;BME280;66014;53.134;18.006;2023-07-08T02:41:32;101647.10;;;17.02;57.52
77086;BME280;66014;53.134;18.006;2023-07-08T02:43:58;101642.00;;;16.96;57.72
77086;BME280;66014;53.134;18.006;2023-07-08T02:46:25;101641.11;;;16.93;57.77
77086;BME280;66014;53.134;18.006;2023-07-08T02:48:51;101638.02;;;16.89;57.72
77086;BME280;66014;53.134;18.006;2023-07-08T02:51:18;101638.44;;;16.86;57.81
77086;BME280;66014;53.134;18.006;2023-07-08T02:53:44;101640.61;;;16.83;57.90
77086;BME280;66014;53.134;18.006;2023-07-08T02:56:11;101638.41;;;16.82;57.94
77086;BME280;66014;53.134;18.006;2023-07-08T02:58:37;101643.98;;;16.80;58.09
77086;BME280;66014;53.134;18.006;2023-07-08T03:01:04;101640.80;;;16.80;58.11
77086;BME280;66014;53.134;18.006;2023-07-08T03:03:32;101644.30;;;16.79;58.12
77086;BME280;66014;53.134;18.006;2023-07-08T03:06:03;101641.02;;;16.77;58.10
77086;BME280;66014;53.134;18.006;2023-07-08T03:08:31;101637.35;;;16.75;58.17
77086;BME280;66014;53.134;18.006;2023-07-08T03:11:02;101637.05;;;16.73;58.26
77086;BME280;66014;53.134;18.006;2023-07-08T03:13:29;101638.63;;;16.70;58.27
77086;BME280;66014;53.134;18.006;2023-07-08T03:15:58;101640.39;;;16.68;58.40
77086;BME280;66014;53.134;18.006;2023-07-08T03:18:25;101640.73;;;16.67;58.40
77086;BME280;66014;53.134;18.006;2023-07-08T03:20:54;101645.48;;;16.68;58.54
77086;BME280;66014;53.134;18.006;2023-07-08T03:23:25;101644.47;;;16.67;58.61
77086;BME280;66014;53.134;18.006;2023-07-08T03:25:52;101640.46;;;16.68;58.71
77086;BME280;66014;53.134;18.006;2023-07-08T03:28:19;101640.30;;;16.69;58.88
77086;BME280;66014;53.134;18.006;2023-07-08T03:30:51;101639.68;;;16.68;58.81
77086;BME280;66014;53.134;18.006;2023-07-08T03:33:18;101639.45;;;16.70;58.83
77086;BME280;66014;53.134;18.006;2023-07-08T03:35:45;101639.09;;;16.71;58.97
77086;BME280;66014;53.134;18.006;2023-07-08T03:38:12;101634.11;;;16.72;58.92
77086;BME280;66014;53.134;18.006;2023-07-08T03:40:38;101631.75;;;16.74;59.09
77086;BME280;66014;53.134;18.006;2023-07-08T03:43:05;101634.14;;;16.76;59.01
77086;BME280;66014;53.134;18.006;2023-07-08T03:45:31;101633.38;;;16.79;58.93
77086;BME280;66014;53.134;18.006;2023-07-08T03:47:58;101634.83;;;16.83;59.00
77086;BME280;66014;53.134;18.006;2023-07-08T03:50:25;101633.38;;;16.88;59.11
77086;BME280;66014;53.134;18.006;2023-07-08T03:52:54;101633.84;;;16.91;58.96
77086;BME280;66014;53.134;18.006;2023-07-08T03:55:22;101635.82;;;16.94;59.03
77086;BME280;66014;53.134;18.006;2023-07-08T03:57:49;101632.93;;;16.95;59.02
77086;BME280;66014;53.134;18.006;2023-07-08T04:00:15;101632.95;;;16.98;59.32
77086;BME280;66014;53.134;18.006;2023-07-08T04:02:43;101635.84;;;17.02;59.37
77086;BME280;66014;53.134;18.006;2023-07-08T04:05:18;101635.46;;;17.06;59.32
77086;BME280;66014;53.134;18.006;2023-07-08T04:07:46;101634.05;;;17.12;59.11
77086;BME280;66014;53.134;18.006;2023-07-08T04:10:13;101637.86;;;17.15;59.08
77086;BME280;66014;53.134;18.006;2023-07-08T04:12:40;101631.24;;;17.18;59.18
77086;BME280;66014;53.134;18.006;2023-07-08T04:15:10;101630.28;;;17.21;59.16
77086;BME280;66014;53.134;18.006;2023-07-08T04:17:43;101630.85;;;17.25;59.32
77086;BME280;66014;53.134;18.006;2023-07-08T04:20:13;101631.70;;;17.29;59.33
77086;BME280;66014;53.134;18.006;2023-07-08T04:22:40;101630.92;;;17.37;59.20
77086;BME280;66014;53.134;18.006;2023-07-08T04:25:07;101631.73;;;17.42;59.20
77086;BME280;66014;53.134;18.006;2023-07-08T04:27:34;101630.77;;;17.46;59.06
77086;BME280;66014;53.134;18.006;2023-07-08T04:30:00;101632.98;;;17.50;59.23
77086;BME280;66014;53.134;18.006;2023-07-08T04:32:29;101635.08;;;17.54;59.09
77086;BME280;66014;53.134;18.006;2023-07-08T04:34:56;101631.51;;;17.60;59.06
77086;BME280;66014;53.134;18.006;2023-07-08T04:37:23;101630.45;;;17.65;59.16
77086;BME280;66014;53.134;18.006;2023-07-08T04:39:49;101628.75;;;17.70;59.09
77086;BME280;66014;53.134;18.006;2023-07-08T04:42:16;101628.16;;;17.75;58.97
77086;BME280;66014;53.134;18.006;2023-07-08T04:44:44;101623.80;;;17.81;58.89
77086;BME280;66014;53.134;18.006;2023-07-08T04:47:10;101625.10;;;17.89;59.01
77086;BME280;66014;53.134;18.006;2023-07-08T04:49:40;101624.84;;;17.96;58.94
77086;BME280;66014;53.134;18.006;2023-07-08T04:52:09;101619.98;;;18.03;58.85
77086;BME280;66014;53.134;18.006;2023-07-08T04:54:36;101620.30;;;18.10;58.66
77086;BME280;66014;53.134;18.006;2023-07-08T04:57:03;101619.02;;;18.18;58.68
77086;BME280;66014;53.134;18.006;2023-07-08T04:59:30;101615.91;;;18.27;58.44
77086;BME280;66014;53.134;18.006;2023-07-08T05:02:01;101620.61;;;18.36;58.39
77086;BME280;66014;53.134;18.006;2023-07-08T05:04:27;101617.46;;;18.46;58.11
77086;BME280;66014;53.134;18.006;2023-07-08T05:06:54;101619.69;;;18.56;58.22
77086;BME280;66014;53.134;18.006;2023-07-08T05:09:20;101620.68;;;18.64;58.05
77086;BME280;66014;53.134;18.006;2023-07-08T05:11:49;101619.09;;;18.74;57.84
77086;BME280;66014;53.134;18.006;2023-07-08T05:14:16;101621.41;;;18.85;57.72
77086;BME280;66014;53.134;18.006;2023-07-08T05:16:42;101621.53;;;18.94;57.60
77086;BME280;66014;53.134;18.006;2023-07-08T05:19:09;101619.11;;;19.04;57.24
77086;BME280;66014;53.134;18.006;2023-07-08T05:21:36;101623.19;;;19.12;56.52
77086;BME280;66014;53.134;18.006;2023-07-08T05:24:05;101625.30;;;19.20;56.33
77086;BME280;66014;53.134;18.006;2023-07-08T05:26:33;101616.66;;;19.29;55.95
77086;BME280;66014;53.134;18.006;2023-07-08T05:28:59;101614.00;;;19.36;55.52
77086;BME280;66014;53.134;18.006;2023-07-08T05:31:27;101613.78;;;19.43;55.35
77086;BME280;66014;53.134;18.006;2023-07-08T05:33:53;101611.77;;;19.49;55.08
77086;BME280;66014;53.134;18.006;2023-07-08T05:36:20;101609.58;;;19.56;55.14
77086;BME280;66014;53.134;18.006;2023-07-08T05:38:47;101604.41;;;19.64;54.97
77086;BME280;66014;53.134;18.006;2023-07-08T05:41:14;101599.25;;;19.75;54.63
77086;BME280;66014;53.134;18.006;2023-07-08T05:43:40;101601.14;;;19.85;54.50
77086;BME280;66014;53.134;18.006;2023-07-08T05:46:07;101603.04;;;19.95;54.29
77086;BME280;66014;53.134;18.006;2023-07-08T05:48:35;101602.34;;;20.05;53.87
77086;BME280;66014;53.134;18.006;2023-07-08T05:51:02;101599.38;;;20.16;53.74
77086;BME280;66014;53.134;18.006;2023-07-08T05:53:28;101595.86;;;20.27;53.54
77086;BME280;66014;53.134;18.006;2023-07-08T05:55:55;101592.46;;;20.39;53.23
77086;BME280;66014;53.134;18.006;2023-07-08T05:58:23;101594.14;;;20.49;52.95
77086;BME280;66014;53.134;18.006;2023-07-08T06:00:54;101589.33;;;20.59;52.73
77086;BME280;66014;53.134;18.006;2023-07-08T06:03:22;101586.48;;;20.72;52.46
77086;BME280;66014;53.134;18.006;2023-07-08T06:05:48;101582.14;;;20.93;52.14
77086;BME280;66014;53.134;18.006;2023-07-08T06:08:15;101586.48;;;21.21;51.57
77086;BME280;66014;53.134;18.006;2023-07-08T06:10:43;101586.40;;;21.59;50.91
77086;BME280;66014;53.134;18.006;2023-07-08T06:13:11;101584.34;;;22.05;49.44
77086;BME280;66014;53.134;18.006;2023-07-08T06:15:38;101587.05;;;22.56;48.11
77086;BME280;66014;53.134;18.006;2023-07-08T06:18:05;101587.10;;;23.42;47.09
77086;BME280;66014;53.134;18.006;2023-07-08T06:20:32;101584.86;;;24.59;45.24
77086;BME280;66014;53.134;18.006;2023-07-08T06:22:59;101588.98;;;25.64;43.46
77086;BME280;66014;53.134;18.006;2023-07-08T06:25:25;101593.91;;;26.56;42.25
77086;BME280;66014;53.134;18.006;2023-07-08T06:27:52;101596.08;;;27.44;41.51
77086;BME280;66014;53.134;18.006;2023-07-08T06:30:18;101593.98;;;28.31;40.02
77086;BME280;66014;53.134;18.006;2023-07-08T06:32:45;101592.17;;;29.12;38.18
77086;BME280;66014;53.134;18.006;2023-07-08T06:35:11;101592.99;;;29.79;36.96
77086;BME280;66014;53.134;18.006;2023-07-08T06:37:38;101592.48;;;30.35;35.53
77086;BME280;66014;53.134;18.006;2023-07-08T06:40:05;101591.13;;;30.93;34.44
77086;BME280;66014;53.134;18.006;2023-07-08T06:42:32;101594.52;;;31.59;33.93
77086;BME280;66014;53.134;18.006;2023-07-08T06:44:59;101589.24;;;32.34;32.72
77086;BME280;66014;53.134;18.006;2023-07-08T06:47:25;101584.45;;;33.14;31.83
77086;BME280;66014;53.134;18.006;2023-07-08T06:49:52;101585.29;;;33.79;28.80
77086;BME280;66014;53.134;18.006;2023-07-08T06:52:18;101581.19;;;33.95;27.42
77086;BME280;66014;53.134;18.006;2023-07-08T06:54:44;101581.39;;;34.20;26.16
77086;BME280;66014;53.134;18.006;2023-07-08T06:57:11;101575.55;;;34.31;25.54
77086;BME280;66014;53.134;18.006;2023-07-08T06:59:37;101580.08;;;34.48;24.43
77086;BME280;66014;53.134;18.006;2023-07-08T07:02:05;101577.28;;;34.64;24.33
77086;BME280;66014;53.134;18.006;2023-07-08T07:04:32;101579.53;;;34.85;23.30
77086;BME280;66014;53.134;18.006;2023-07-08T07:06:59;101579.48;;;35.04;23.03
77086;BME280;66014;53.134;18.006;2023-07-08T07:09:25;101578.41;;;35.41;22.87
77086;BME280;66014;53.134;18.006;2023-07-08T07:11:52;101579.60;;;35.95;22.53
77086;BME280;66014;53.134;18.006;2023-07-08T07:14:18;101576.13;;;36.59;22.30
77086;BME280;66014;53.134;18.006;2023-07-08T07:16:45;101573.29;;;37.16;20.91
77086;BME280;66014;53.134;18.006;2023-07-08T07:19:11;101574.39;;;37.59;21.04
77086;BME280;66014;53.134;18.006;2023-07-08T07:21:38;101574.50;;;38.14;21.07
77086;BME280;66014;53.134;18.006;2023-07-08T07:24:04;101580.40;;;38.68;19.89
77086;BME280;66014;53.134;18.006;2023-07-08T07:26:33;101580.91;;;38.82;18.45
77086;BME280;66014;53.134;18.006;2023-07-08T07:28:59;101578.73;;;38.71;18.48
77086;BME280;66014;53.134;18.006;2023-07-08T07:31:26;101581.14;;;38.65;18.24
77086;BME280;66014;53.134;18.006;2023-07-08T07:33:53;101578.27;;;38.66;18.51
77086;BME280;66014;53.134;18.006;2023-07-08T07:36:19;101580.48;;;38.79;18.32
77086;BME280;66014;53.134;18.006;2023-07-08T07:38:46;101577.95;;;39.01;18.01
77086;BME280;66014;53.134;18.006;2023-07-08T07:41:12;101579.93;;;39.42;17.92
77086;BME280;66014;53.134;18.006;2023-07-08T07:43:39;101582.09;;;39.68;17.54
77086;BME280;66014;53.134;18.006;2023-07-08T07:46:05;101581.87;;;39.64;17.52
77086;BME280;66014;53.134;18.006;2023-07-08T07:48:32;101577.63;;;39.49;17.72
77086;BME280;66014;53.134;18.006;2023-07-08T07:50:58;101582.96;;;39.71;17.78
77086;BME280;66014;53.134;18.006;2023-07-08T07:53:25;101585.11;;;40.21;17.59
77086;BME280;66014;53.134;18.006;2023-07-08T07:56:03;101587.98;;;40.64;16.93
77086;BME280;66014;53.134;18.006;2023-07-08T07:58:30;101585.63;;;40.96;17.46
77086;BME280;66014;53.134;18.006;2023-07-08T08:00:57;101583.55;;;41.31;16.43
77086;BME280;66014;53.134;18.006;2023-07-08T08:03:24;101578.67;;;41.59;16.86
77086;BME280;66014;53.134;18.006;2023-07-08T08:05:51;101577.88;;;42.06;16.36
77086;BME280;66014;53.134;18.006;2023-07-08T08:08:19;101582.33;;;42.49;15.95
77086;BME280;66014;53.134;18.006;2023-07-08T08:10:45;101582.45;;;42.82;15.45
77086;BME280;66014;53.134;18.006;2023-07-08T08:13:12;101579.10;;;43.12;14.92
77086;BME280;66014;53.134;18.006;2023-07-08T08:15:38;101582.27;;;43.29;14.57
77086;BME280;66014;53.134;18.006;2023-07-08T08:18:06;101588.89;;;43.59;14.52
77086;BME280;66014;53.134;18.006;2023-07-08T08:20:32;101586.58;;;44.01;14.57
77086;BME280;66014;53.134;18.006;2023-07-08T08:22:59;101590.14;;;44.25;14.25
77086;BME280;66014;53.134;18.006;2023-07-08T08:25:25;101585.45;;;44.42;13.95
77086;BME280;66014;53.134;18.006;2023-07-08T08:27:52;101587.64;;;44.49;14.02
77086;BME280;66014;53.134;18.006;2023-07-08T08:30:19;101592.73;;;44.72;13.71
77086;BME280;66014;53.134;18.006;2023-07-08T08:32:45;101585.11;;;44.79;12.96
77086;BME280;66014;53.134;18.006;2023-07-08T08:35:12;101587.66;;;44.93;12.97
77086;BME280;66014;53.134;18.006;2023-07-08T08:37:38;101586.02;;;45.21;12.52
77086;BME280;66014;53.134;18.006;2023-07-08T08:40:08;101584.81;;;45.93;12.26
77086;BME280;66014;53.134;18.006;2023-07-08T08:42:44;101593.11;;;46.84;11.47
77086;BME280;66014;53.134;18.006;2023-07-08T08:45:17;101591.17;;;47.63;10.97
77086;BME280;66014;53.134;18.006;2023-07-08T08:47:53;101590.34;;;48.38;10.61
77086;BME280;66014;53.134;18.006;2023-07-08T08:50:28;101592.16;;;48.92;9.96
77086;BME280;66014;53.134;18.006;2023-07-08T08:52:57;101592.16;;;48.76;9.93
77086;BME280;66014;53.134;18.006;2023-07-08T08:55:25;101589.48;;;49.07;9.95
77086;BME280;66014;53.134;18.006;2023-07-08T09:00:52;101583.34;;;49.94;9.01
77086;BME280;66014;53.134;18.006;2023-07-08T09:05:56;101576.91;;;50.10;8.75
77086;BME280;66014;53.134;18.006;2023-07-08T09:08:33;101579.08;;;50.38;8.73
77086;BME280;66014;53.134;18.006;2023-07-08T09:13:54;101576.27;;;51.36;8.27
77086;BME280;66014;53.134;18.006;2023-07-08T09:16:29;101575.83;;;51.44;8.04
77086;BME280;66014;53.134;18.006;2023-07-08T09:19:08;101569.09;;;51.39;7.84
77086;BME280;66014;53.134;18.006;2023-07-08T09:26:56;101567.55;;;51.40;7.49
77086;BME280;66014;53.134;18.006;2023-07-08T09:29:26;101560.86;;;50.55;7.89
77086;BME280;66014;53.134;18.006;2023-07-08T09:31:53;101561.23;;;50.08;8.23
77086;BME280;66014;53.134;18.006;2023-07-08T09:34:35;101559.36;;;50.15;8.15
77086;BME280;66014;53.134;18.006;2023-07-08T09:37:20;101557.06;;;49.84;8.12
77086;BME280;66014;53.134;18.006;2023-07-08T09:39:49;101558.48;;;49.37;8.08
77086;BME280;66014;53.134;18.006;2023-07-08T09:42:15;101555.97;;;48.92;8.46
77086;BME280;66014;53.134;18.006;2023-07-08T09:44:45;101552.20;;;49.28;8.55
77086;BME280;66014;53.134;18.006;2023-07-08T09:47:28;101553.02;;;49.62;8.18
77086;BME280;66014;53.134;18.006;2023-07-08T09:49:58;101556.05;;;49.58;8.10
77086;BME280;66014;53.134;18.006;2023-07-08T09:52:28;101554.16;;;49.54;8.10
77086;BME280;66014;53.134;18.006;2023-07-08T09:54:55;101549.95;;;49.76;7.93
77086;BME280;66014;53.134;18.006;2023-07-08T09:57:39;101547.77;;;49.92;7.62
77086;BME280;66014;53.134;18.006;2023-07-08T10:00:10;101543.66;;;50.46;7.61
77086;BME280;66014;53.134;18.006;2023-07-08T10:02:45;101540.30;;;50.76;7.51
77086;BME280;66014;53.134;18.006;2023-07-08T10:05:23;101534.67;;;50.28;7.45
77086;BME280;66014;53.134;18.006;2023-07-08T10:07:55;101530.95;;;49.97;7.64
77086;BME280;66014;53.134;18.006;2023-07-08T10:10:34;101534.80;;;49.62;7.55
77086;BME280;66014;53.134;18.006;2023-07-08T10:13:22;101530.86;;;48.49;8.14
77086;BME280;66014;53.134;18.006;2023-07-08T10:16:11;101528.80;;;47.81;8.57
77086;BME280;66014;53.134;18.006;2023-07-08T10:18:39;101524.32;;;47.98;8.74
77086;BME280;66014;53.134;18.006;2023-07-08T10:26:28;101530.38;;;48.52;8.43
77086;BME280;66014;53.134;18.006;2023-07-08T10:35:17;101519.77;;;48.94;8.13
77086;BME280;66014;53.134;18.006;2023-07-08T10:38:04;101520.41;;;49.38;8.22
77086;BME280;66014;53.134;18.006;2023-07-08T10:46:30;101505.84;;;50.83;7.89
77086;BME280;66014;53.134;18.006;2023-07-08T10:55:07;101508.77;;;51.64;6.83
77086;BME280;66014;53.134;18.006;2023-07-08T11:01:03;101501.64;;;52.36;6.78
77086;BME280;66014;53.134;18.006;2023-07-08T11:03:47;101499.95;;;51.74;6.29
77086;BME280;66014;53.134;18.006;2023-07-08T11:06:24;101498.11;;;50.53;6.74
77086;BME280;66014;53.134;18.006;2023-07-08T11:08:55;101494.56;;;50.07;7.25
77086;BME280;66014;53.134;18.006;2023-07-08T11:11:42;101489.15;;;50.68;7.01
77086;BME280;66014;53.134;18.006;2023-07-08T11:14:35;101492.12;;;51.17;6.65
77086;BME280;66014;53.134;18.006;2023-07-08T11:17:16;101489.20;;;51.59;6.62
77086;BME280;66014;53.134;18.006;2023-07-08T11:20:21;101491.13;;;51.98;6.19
77086;BME280;66014;53.134;18.006;2023-07-08T11:22:54;101489.53;;;51.55;5.82
77086;BME280;66014;53.134;18.006;2023-07-08T11:25:27;101480.97;;;51.14;5.93
77086;BME280;66014;53.134;18.006;2023-07-08T11:27:59;101477.02;;;51.27;5.91
77086;BME280;66014;53.134;18.006;2023-07-08T11:30:37;101474.63;;;51.67;6.12
77086;BME280;66014;53.134;18.006;2023-07-08T11:33:15;101472.58;;;52.10;6.04
77086;BME280;66014;53.134;18.006;2023-07-08T11:35:46;101476.02;;;51.58;6.04
77086;BME280;66014;53.134;18.006;2023-07-08T11:38:17;101467.09;;;50.31;6.63
77086;BME280;66014;53.134;18.006;2023-07-08T11:40:55;101464.05;;;49.30;6.72
77086;BME280;66014;53.134;18.006;2023-07-08T11:43:26;101461.27;;;48.34;7.22
77086;BME280;66014;53.134;18.006;2023-07-08T11:45:56;101458.77;;;47.57;7.68
77086;BME280;66014;53.134;18.006;2023-07-08T11:48:27;101459.17;;;46.98;8.04
77086;BME280;66014;53.134;18.006;2023-07-08T11:50:58;101457.96;;;46.74;8.12
77086;BME280;66014;53.134;18.006;2023-07-08T11:56:18;101455.73;;;46.78;8.46
77086;BME280;66014;53.134;18.006;2023-07-08T12:01:48;101458.28;;;48.20;7.98
77086;BME280;66014;53.134;18.006;2023-07-08T12:04:25;101465.02;;;49.24;7.84
77086;BME280;66014;53.134;18.006;2023-07-08T12:07:19;101457.83;;;50.00;7.73
77086;BME280;66014;53.134;18.006;2023-07-08T12:09:49;101453.00;;;50.69;7.45
77086;BME280;66014;53.134;18.006;2023-07-08T12:12:39;101449.95;;;51.04;7.30
77086;BME280;66014;53.134;18.006;2023-07-08T12:17:39;101443.38;;;51.10;6.71
77086;BME280;66014;53.134;18.006;2023-07-08T12:20:27;101449.83;;;51.02;6.68
77086;BME280;66014;53.134;18.006;2023-07-08T12:22:54;101444.70;;;50.99;6.64
77086;BME280;66014;53.134;18.006;2023-07-08T12:25:30;101446.98;;;50.70;6.44
77086;BME280;66014;53.134;18.006;2023-07-08T12:27:57;101446.55;;;50.51;6.84
77086;BME280;66014;53.134;18.006;2023-07-08T12:30:27;101439.73;;;50.19;7.13
77086;BME280;66014;53.134;18.006;2023-07-08T12:32:55;101441.83;;;49.73;7.38
77086;BME280;66014;53.134;18.006;2023-07-08T12:35:28;101436.54;;;49.08;7.72
77086;BME280;66014;53.134;18.006;2023-07-08T12:37:58;101438.29;;;48.00;8.19
77086;BME280;66014;53.134;18.006;2023-07-08T12:40:27;101433.00;;;46.86;8.34
77086;BME280;66014;53.134;18.006;2023-07-08T12:42:56;101432.79;;;45.71;8.92
77086;BME280;66014;53.134;18.006;2023-07-08T12:45:24;101426.02;;;44.59;9.57
77086;BME280;66014;53.134;18.006;2023-07-08T12:47:52;101427.05;;;43.79;9.88
77086;BME280;66014;53.134;18.006;2023-07-08T12:50:22;101425.20;;;42.85;10.53
77086;BME280;66014;53.134;18.006;2023-07-08T12:52:53;101422.59;;;41.90;10.82
77086;BME280;66014;53.134;18.006;2023-07-08T12:55:20;101419.20;;;41.08;11.53
77086;BME280;66014;53.134;18.006;2023-07-08T12:57:49;101419.66;;;40.37;12.21
77086;BME280;66014;53.134;18.006;2023-07-08T13:00:25;101416.93;;;39.70;12.54
77086;BME280;66014;53.134;18.006;2023-07-08T13:03:02;101413.90;;;39.19;12.99
77086;BME280;66014;53.134;18.006;2023-07-08T13:05:38;101416.09;;;38.94;13.35
77086;BME280;66014;53.134;18.006;2023-07-08T13:08:08;101409.79;;;38.73;13.71
77086;BME280;66014;53.134;18.006;2023-07-08T13:10:37;101407.13;;;38.51;13.73
77086;BME280;66014;53.134;18.006;2023-07-08T13:13:10;101411.00;;;38.24;14.25
77086;BME280;66014;53.134;18.006;2023-07-08T13:15:40;101408.30;;;37.83;14.82
77086;BME280;66014;53.134;18.006;2023-07-08T13:18:13;101408.29;;;37.52;14.96
77086;BME280;66014;53.134;18.006;2023-07-08T13:20:43;101407.44;;;37.00;15.24
77086;BME280;66014;53.134;18.006;2023-07-08T13:23:15;101403.97;;;36.47;15.83
77086;BME280;66014;53.134;18.006;2023-07-08T13:25:48;101409.57;;;36.08;16.17
77086;BME280;66014;53.134;18.006;2023-07-08T13:28:19;101409.70;;;35.57;16.64
77086;BME280;66014;53.134;18.006;2023-07-08T13:30:54;101403.16;;;35.27;16.82
77086;BME280;66014;53.134;18.006;2023-07-08T13:33:22;101403.95;;;34.91;17.29
77086;BME280;66014;53.134;18.006;2023-07-08T13:35:51;101394.17;;;34.63;17.57
77086;BME280;66014;53.134;18.006;2023-07-08T13:38:22;101394.92;;;34.56;18.06
77086;BME280;66014;53.134;18.006;2023-07-08T13:40:56;101395.74;;;34.58;18.21
77086;BME280;66014;53.134;18.006;2023-07-08T13:43:28;101397.86;;;34.57;18.11
77086;BME280;66014;53.134;18.006;2023-07-08T13:45:55;101398.84;;;34.52;18.45
77086;BME280;66014;53.134;18.006;2023-07-08T13:56:20;101403.17;;;34.35;18.92
77086;BME280;66014;53.134;18.006;2023-07-08T13:58:52;101405.02;;;34.32;19.08